Time;durP1;ratioP1;P1;durP2;ratioP2;P2;SDS_P1;SDS_P2;PMS_P1;PMS_P2;Temp;Humidity;BMP_temperature;BMP_pressure;BME280_temperature;BME280_humidity;BME280_pressure;Samples;Min_cycle;Max_cycle;Signal;HPM_P1;HPM_P2
2022/02/21 00:00:41;;;;;;;1.3;2.9;;;;;;;8.1;63.6;97600;;;;
2022/02/21 00:10:41;;;;;;;1.5;3.1;;;;;;;8;63.8;97590;;;;
2022/02/21 00:20:41;;;;;;;1.5;3.1;;;;;;;8.2;63.4;97570;;;;
2022/02/21 00:31:41;;;;;;;1.5;3.1;;;;;;;8.4;62.5;97530;;;;
2022/02/21 00:42:41;;;;;;;1.2;3.1;;;;;;;8.3;62.1;97510;;;;
2022/02/21 00:53:41;;;;;;;1.2;3.1;;;;;;;8.4;61.5;97480;;;;
2022/02/21 01:04:41;;;;;;;1.2;3.1;;;;;;;8.7;60.5;97470;;;;
2022/02/21 01:15:41;;;;;;;1.2;2.4;;;;;;;8.7;59.9;97440;;;;
2022/02/21 01:26:41;;;;;;;1.2;2.4;;;;;;;8.9;59;97410;;;;
2022/02/21 01:37:41;;;;;;;1.2;2.4;;;;;;;8.8;59;97390;;;;
2022/02/21 01:47:41;;;;;;;1.2;2.1;;;;;;;8.8;58.3;97360;;;;
2022/02/21 01:57:41;;;;;;;1.2;2.1;;;;;;;8.8;58.3;97340;;;;
2022/02/21 02:08:41;;;;;;;1;2.3;;;;;;;9;57.5;97320;;;;
2022/02/21 02:18:41;;;;;;;1;2.3;;;;;;;9.1;57.4;97300;;;;
2022/02/21 02:29:41;;;;;;;1;2.3;;;;;;;9.1;57.6;97290;;;;
2022/02/21 02:39:41;;;;;;;1.2;3.1;;;;;;;9.2;57.7;97280;;;;
2022/02/21 02:49:41;;;;;;;1.2;3.1;;;;;;;9.1;59.1;97270;;;;
2022/02/21 03:00:41;;;;;;;1.2;3.1;;;;;;;9;60.5;97260;;;;
2022/02/21 03:11:41;;;;;;;1.2;2.2;;;;;;;8.9;61;97250;;;;
2022/02/21 03:22:44;;;;;;;1.2;2.2;;;;;;;9;61.1;97260;;;;
2022/02/21 03:32:41;;;;;;;1.2;2.2;;;;;;;8.9;62.2;97250;;;;
2022/02/21 03:43:41;;;;;;;2.1;3.8;;;;;;;8.7;64.3;97220;;;;
2022/02/21 03:53:41;;;;;;;2.1;3.8;;;;;;;8.6;64.6;97200;;;;
2022/02/21 04:03:41;;;;;;;2.1;3.8;;;;;;;8.5;64.8;97180;;;;
2022/02/21 04:14:41;;;;;;;1.1;2.6;;;;;;;8.4;66.4;97170;;;;
2022/02/21 04:25:41;;;;;;;1.1;2.6;;;;;;;8;69.8;97120;;;;
2022/02/21 04:36:41;;;;;;;1.1;2.6;;;;;;;7.7;70.7;97080;;;;
2022/02/21 04:47:41;;;;;;;0.9;1.9;;;;;;;7.9;68.7;97060;;;;
2022/02/21 04:57:41;;;;;;;0.9;1.9;;;;;;;8.1;67.3;97040;;;;
2022/02/21 05:07:43;;;;;;;1.2;2.4;;;;;;;8.2;66.4;97000;;;;
2022/02/21 05:17:41;;;;;;;1.2;2.4;;;;;;;8.3;65.4;96960;;;;
2022/02/21 05:28:41;;;;;;;1.2;2.4;;;;;;;8.5;64;96940;;;;
2022/02/21 05:39:41;;;;;;;1.2;2.2;;;;;;;9;61;96940;;;;
2022/02/21 05:49:41;;;;;;;1.2;2.2;;;;;;;9.4;59.6;96950;;;;
2022/02/21 05:59:41;;;;;;;1.2;2.2;;;;;;;9.2;62;96970;;;;
2022/02/21 06:10:41;;;;;;;1.4;2.4;;;;;;;9.1;64.1;96960;;;;
2022/02/21 06:21:41;;;;;;;1.4;2.4;;;;;;;9;65.7;96950;;;;
2022/02/21 06:32:41;;;;;;;1.4;2.4;;;;;;;9;66;96960;;;;
2022/02/21 06:43:41;;;;;;;1.3;5;;;;;;;8.8;67.3;96950;;;;
2022/02/21 06:53:41;;;;;;;1.3;5;;;;;;;8.6;67.1;96950;;;;
2022/02/21 07:03:41;;;;;;;1.3;5;;;;;;;8.6;66.6;96950;;;;
2022/02/21 07:13:41;;;;;;;1.4;2.5;;;;;;;8.6;67.3;96960;;;;
2022/02/21 07:23:41;;;;;;;1.4;2.5;;;;;;;8.5;68.5;96970;;;;
2022/02/21 07:34:41;;;;;;;1.4;2.5;;;;;;;8.3;70.5;96960;;;;
2022/02/21 07:44:41;;;;;;;1.2;3;;;;;;;8.2;71.4;96970;;;;
2022/02/21 07:55:41;;;;;;;1.2;3;;;;;;;8.1;72.3;96930;;;;
2022/02/21 08:05:41;;;;;;;1.2;3;;;;;;;8.1;72.6;96910;;;;
2022/02/21 08:15:41;;;;;;;1.4;2.8;;;;;;;8;73.8;96900;;;;
2022/02/21 08:26:41;;;;;;;1.4;2.8;;;;;;;8.2;72.5;96910;;;;
2022/02/21 08:37:41;;;;;;;1.2;2.8;;;;;;;8.5;70.3;96880;;;;
2022/02/21 08:47:41;;;;;;;1.2;2.8;;;;;;;8.7;70;96880;;;;
2022/02/21 08:57:41;;;;;;;1.2;2.8;;;;;;;9;68.7;96880;;;;
2022/02/21 09:07:41;;;;;;;1.3;4.2;;;;;;;8.8;68.5;96850;;;;
2022/02/21 09:18:41;;;;;;;1.3;4.2;;;;;;;8.8;68.5;96830;;;;
2022/02/21 09:29:41;;;;;;;1.3;4.2;;;;;;;8.9;68.2;96830;;;;
2022/02/21 09:39:41;;;;;;;1.6;4;;;;;;;8.9;67.8;96840;;;;
2022/02/21 09:49:41;;;;;;;1.6;4;;;;;;;9;66.6;96830;;;;
2022/02/21 10:00:41;;;;;;;1.6;4;;;;;;;9.4;66.3;96840;;;;
2022/02/21 10:11:41;;;;;;;1.4;4.4;;;;;;;9.6;64.8;96840;;;;
2022/02/21 10:22:41;;;;;;;1.4;4.4;;;;;;;9.6;64.3;96850;;;;
2022/02/21 10:32:42;;;;;;;1.4;4.4;;;;;;;9.8;63;96840;;;;
2022/02/21 10:42:41;;;;;;;1;2.6;;;;;;;9.6;63.5;96880;;;;
2022/02/21 10:53:41;;;;;;;1;2.6;;;;;;;9.6;62.6;96880;;;;
2022/02/21 11:03:41;;;;;;;1;2.6;;;;;;;9.6;62.8;96900;;;;
2022/02/21 11:14:41;;;;;;;1.3;3.2;;;;;;;9.4;63.4;96930;;;;
2022/02/21 11:24:41;;;;;;;1.3;3.2;;;;;;;9.2;64.4;96980;;;;
2022/02/21 11:35:45;;;;;;;1.3;3.2;;;;;;;8.3;67.3;97000;;;;
2022/02/21 11:45:41;;;;;;;2;4.5;;;;;;;7.8;69.2;97020;;;;
2022/02/21 11:55:42;;;;;;;2;4.5;;;;;;;7;73.3;97060;;;;
2022/02/21 12:06:41;;;;;;;2.7;6.6;;;;;;;7;75.8;97040;;;;
2022/02/21 12:16:41;;;;;;;2.7;6.6;;;;;;;6.9;76.7;97080;;;;
2022/02/21 12:26:41;;;;;;;2.7;6.6;;;;;;;7.1;76.5;97110;;;;
2022/02/21 12:37:41;;;;;;;4.2;6.6;;;;;;;7.6;72.5;97100;;;;
2022/02/21 12:47:41;;;;;;;4.2;6.6;;;;;;;8;67.1;97100;;;;
2022/02/21 12:57:41;;;;;;;4.2;6.6;;;;;;;8;59.5;97140;;;;
2022/02/21 13:07:41;;;;;;;2.1;4.2;;;;;;;8;58.3;97140;;;;
2022/02/21 13:18:41;;;;;;;2.1;4.2;;;;;;;7.9;57.1;97160;;;;
2022/02/21 13:28:41;;;;;;;2.1;4.2;;;;;;;7.9;57.3;97160;;;;
2022/02/21 13:39:41;;;;;;;1.7;4.1;;;;;;;7.9;57.2;97160;;;;
2022/02/21 13:50:41;;;;;;;1.7;4.1;;;;;;;7.8;57.9;97180;;;;
2022/02/21 14:01:41;;;;;;;1.7;4.1;;;;;;;7.5;58;97190;;;;
2022/02/21 14:11:41;;;;;;;1.7;3.7;;;;;;;7.3;58.7;97190;;;;
2022/02/21 14:22:41;;;;;;;1.7;3.7;;;;;;;7.1;63.2;97230;;;;
2022/02/21 14:33:41;;;;;;;1.7;3.7;;;;;;;5.2;71.7;97270;;;;
2022/02/21 14:44:41;;;;;;;3.3;5.5;;;;;;;5.7;71.2;97240;;;;
2022/02/21 14:55:41;;;;;;;3.3;5.5;;;;;;;5.9;70.1;97240;;;;
2022/02/21 15:05:41;;;;;;;3.3;5.5;;;;;;;5.7;69.4;97220;;;;
2022/02/21 15:15:41;;;;;;;5.6;8.6;;;;;;;5.7;69.1;97230;;;;
2022/02/21 15:26:42;;;;;;;5.6;8.6;;;;;;;5.7;69.1;97220;;;;
2022/02/21 15:36:41;;;;;;;9.5;13.9;;;;;;;5.7;67.5;97220;;;;
2022/02/21 15:47:41;;;;;;;9.5;13.9;;;;;;;5.7;62;97220;;;;
2022/02/21 15:58:41;;;;;;;9.5;13.9;;;;;;;5.7;59.8;97230;;;;
2022/02/21 16:09:43;;;;;;;7.4;11.7;;;;;;;5.6;58.1;97240;;;;
2022/02/21 16:19:41;;;;;;;7.4;11.7;;;;;;;5.5;55.6;97240;;;;
2022/02/21 16:29:41;;;;;;;7.4;11.7;;;;;;;5.4;53.5;97230;;;;
2022/02/21 16:40:41;;;;;;;7.4;13;;;;;;;5.2;53.8;97260;;;;
2022/02/21 16:50:41;;;;;;;7.4;13;;;;;;;5.2;53.1;97260;;;;
2022/02/21 17:00:41;;;;;;;7.4;13;;;;;;;5.2;52.7;97280;;;;
2022/02/21 17:11:41;;;;;;;4.3;8.6;;;;;;;5.2;52.1;97270;;;;
2022/02/21 17:22:41;;;;;;;4.3;8.6;;;;;;;5.2;51.1;97280;;;;
2022/02/21 17:32:41;;;;;;;4.3;8.6;;;;;;;5;51.6;97260;;;;
2022/02/21 17:42:41;;;;;;;4.5;8.6;;;;;;;4.8;51.9;97270;;;;
2022/02/21 17:52:41;;;;;;;4.5;8.6;;;;;;;4.6;52.6;97270;;;;
2022/02/21 18:02:41;;;;;;;4.5;8.6;;;;;;;4.6;52.8;97260;;;;
2022/02/21 18:13:41;;;;;;;5.6;10.5;;;;;;;4.5;53.2;97280;;;;
2022/02/21 18:23:42;;;;;;;5.6;10.5;;;;;;;4.3;53.7;97270;;;;
2022/02/21 18:33:41;;;;;;;5.6;10.5;;;;;;;4.3;54;97280;;;;
2022/02/21 18:44:41;;;;;;;6.6;11;;;;;;;4;55;97280;;;;
2022/02/21 18:54:41;;;;;;;6.6;11;;;;;;;3.9;55.1;97280;;;;
2022/02/21 19:05:41;;;;;;;6.6;11.2;;;;;;;3.7;55.6;97290;;;;
2022/02/21 19:16:42;;;;;;;6.6;11.2;;;;;;;3.6;55.2;97290;;;;
2022/02/21 19:27:45;;;;;;;6.6;11.2;;;;;;;3.5;57.9;97280;;;;
2022/02/21 19:38:41;;;;;;;8.1;13;;;;;;;3.6;59.7;97290;;;;
2022/02/21 19:48:43;;;;;;;8.1;13;;;;;;;3.3;61.6;97290;;;;
2022/02/21 19:59:41;;;;;;;8.1;13;;;;;;;3.3;62.9;97280;;;;
2022/02/21 20:10:41;;;;;;;10;16.2;;;;;;;3.2;63.5;97270;;;;
2022/02/21 20:21:41;;;;;;;10;16.2;;;;;;;3.4;62.8;97270;;;;
2022/02/21 20:31:41;;;;;;;10;16.2;;;;;;;3.1;63.3;97280;;;;
2022/02/21 20:41:41;;;;;;;9;12.9;;;;;;;3.1;62.8;97280;;;;
2022/02/21 20:51:41;;;;;;;9;12.9;;;;;;;3.1;62.2;97290;;;;
2022/02/21 21:01:41;;;;;;;9;12.9;;;;;;;3.1;62.1;97300;;;;
2022/02/21 21:11:41;;;;;;;7.8;12.4;;;;;;;3.1;61.8;97300;;;;
2022/02/21 21:21:41;;;;;;;7.8;12.4;;;;;;;3.2;61;97300;;;;
2022/02/21 21:32:41;;;;;;;7.8;12.4;;;;;;;3.1;61;97300;;;;
2022/02/21 21:43:41;;;;;;;6.9;13.3;;;;;;;3.2;60.2;97290;;;;
2022/02/21 21:54:41;;;;;;;6.9;13.3;;;;;;;3.1;60.3;97290;;;;
2022/02/21 22:04:41;;;;;;;6.9;13.3;;;;;;;3.2;59.9;97280;;;;
2022/02/21 22:14:41;;;;;;;6.7;12;;;;;;;3.4;59.1;97270;;;;
2022/02/21 22:24:41;;;;;;;6.7;12;;;;;;;3.2;59.5;97280;;;;
2022/02/21 22:35:41;;;;;;;4.7;9;;;;;;;3.2;59.6;97280;;;;
2022/02/21 22:46:41;;;;;;;4.7;9;;;;;;;3.2;59.9;97270;;;;
2022/02/21 22:57:41;;;;;;;4.7;9;;;;;;;3.1;60.4;97280;;;;
2022/02/21 23:08:13;;;;;;;4.6;8.2;;;;;;;3;60.8;97290;;;;
2022/02/21 23:17:41;;;;;;;4.6;8.2;;;;;;;3;61.4;97290;;;;
2022/02/21 23:28:41;;;;;;;4.6;8.2;;;;;;;3.2;61.9;97300;;;;
2022/02/21 23:38:41;;;;;;;4.1;7.9;;;;;;;3.3;62.1;97300;;;;
2022/02/21 23:48:41;;;;;;;4.1;7.9;;;;;;;3.4;62;97310;;;;
2022/02/21 23:59:41;;;;;;;4.1;7.9;;;;;;;3;62.7;97320;;;;
